Time;durP1;ratioP1;P1;durP2;ratioP2;P2;SDS_P1;SDS_P2;PMS_P1;PMS_P2;Temp;Humidity;BMP_temperature;BMP_pressure;BME280_temperature;BME280_humidity;BME280_pressure;Samples;Min_cycle;Max_cycle;Signal;HPM_P1;HPM_P2
2022/01/14 00:01:53;;;;;;;21.90;10.13;;;;;;;5.04;47.09;99457.56;4487240;32;20148;-78
2022/01/14 00:04:20;;;;;;;22.20;8.88;;;;;;;5.87;45.16;99457.59;4486956;32;20096;-78
2022/01/14 00:06:47;;;;;;;27.98;10.57;;;;;;;5.84;44.91;99460.13;4487199;32;20092;-78
2022/01/14 00:09:16;;;;;;;23.87;10.15;;;;;;;5.40;46.18;99455.88;4472897;32;20164;-78
2022/01/14 00:11:49;;;;;;;27.15;10.88;;;;;;;5.15;46.94;99453.31;4486752;32;20108;-78
2022/01/14 00:16:51;;;;;;;25.73;10.27;;;;;;;5.06;47.11;99448.19;4487257;32;20084;-78
2022/01/14 00:19:18;;;;;;;23.45;10.10;;;;;;;4.82;47.90;99445.56;4486554;32;20096;-78
2022/01/14 00:21:46;;;;;;;22.45;10.32;;;;;;;4.85;47.73;99431.09;4487025;32;20464;-78
2022/01/14 00:32:06;;;;;;;25.88;10.20;;;;;;;4.52;48.21;99431.00;4486572;32;20133;-78
2022/01/14 00:34:33;;;;;;;23.83;10.18;;;;;;;4.51;48.45;99430.13;4486853;32;20106;-78
2022/01/14 00:37:00;;;;;;;;;;;;;;;4.89;47.58;99422.59;4487142;32;20135;-78
2022/01/14 00:39:27;;;;;;;28.38;10.38;;;;;;;4.59;48.30;99422.50;4486276;32;19997;-77
2022/01/14 00:41:54;;;;;;;22.87;9.57;;;;;;;4.86;47.32;99426.81;4472631;32;20722;-78
2022/01/14 00:44:21;;;;;;;27.73;11.12;;;;;;;5.06;46.96;99421.75;4486664;32;20100;-78
2022/01/14 00:46:49;;;;;;;27.73;10.02;;;;;;;5.12;46.74;99422.63;4486412;32;20102;-78
2022/01/14 00:49:19;;;;;;;29.77;9.68;;;;;;;5.08;46.85;99420.88;4486461;32;20135;-78
2022/01/14 00:51:46;;;;;;;24.63;10.57;;;;;;;4.95;46.84;99414.06;4486747;32;20143;-78
2022/01/14 00:54:15;;;;;;;23.98;9.38;;;;;;;4.77;47.46;99416.56;4486015;32;20478;-78
2022/01/14 00:59:15;;;;;;;29.17;10.90;;;;;;;4.97;46.93;99407.22;4486601;32;20091;-78
2022/01/14 01:01:52;;;;;;;24.48;9.73;;;;;;;4.90;47.13;99414.06;4474357;32;20163;-78
2022/01/14 01:04:22;;;;;;;27.45;10.60;;;;;;;5.20;46.45;99409.81;4488567;32;20088;-78
2022/01/14 01:06:49;;;;;;;25.00;9.95;;;;;;;4.70;47.64;99408.03;4488553;32;20576;-78
2022/01/14 01:09:17;;;;;;;21.73;9.85;;;;;;;4.29;48.37;99395.97;4488144;32;20171;-78
2022/01/14 01:11:52;;;;;;;25.67;10.43;;;;;;;4.60;48.21;99398.66;4474224;32;20171;-78
2022/01/14 01:14:26;;;;;;;24.95;10.55;;;;;;;4.18;49.47;99394.22;4474648;32;20210;-78
2022/01/14 01:16:53;;;;;;;22.40;9.27;;;;;;;4.39;48.64;99390.91;4475103;32;20076;-78
2022/01/14 01:19:20;;;;;;;24.08;9.52;;;;;;;4.33;48.99;99392.56;4474140;32;20176;-78
2022/01/14 01:21:47;;;;;;;;;;;;;;;4.33;49.15;99384.06;4488328;32;20106;-78
2022/01/14 01:24:15;;;;;;;25.65;9.45;;;;;;;4.24;49.01;99395.09;4488452;32;19975;-78
2022/01/14 01:26:43;;;;;;;24.87;10.18;;;;;;;4.29;49.05;99392.56;4488039;32;20083;-78
2022/01/14 01:31:42;;;;;;;24.30;10.05;;;;;;;4.22;49.70;99396.78;4488376;32;20096;-78
2022/01/14 01:34:12;;;;;;;29.05;11.02;;;;;;;4.32;49.31;99385.75;4474396;32;20097;-78
2022/01/14 01:36:42;;;;;;;23.83;9.63;;;;;;;4.45;49.07;99393.47;4487930;32;20498;-78
2022/01/14 01:39:12;;;;;;;24.83;9.85;;;;;;;4.66;48.48;99385.84;4488384;32;20119;-78
2022/01/14 01:41:41;;;;;;;25.70;10.10;;;;;;;4.95;47.61;99383.34;4488272;32;20100;-78
2022/01/14 01:44:09;;;;;;;26.05;10.68;;;;;;;4.58;48.62;99385.00;4487880;32;20140;-78
2022/01/14 01:46:40;;;;;;;26.30;10.68;;;;;;;4.57;48.71;99386.72;4474591;32;20119;-78
2022/01/14 01:49:08;;;;;;;21.50;10.00;;;;;;;4.55;48.23;99374.75;4488512;32;20174;-78
2022/01/14 01:51:36;;;;;;;28.23;11.35;;;;;;;4.46;49.27;99373.03;4488355;32;20148;-78
2022/01/14 01:54:03;;;;;;;24.05;10.35;;;;;;;5.13;47.59;99362.91;4488179;32;20092;-78
2022/01/14 01:56:30;;;;;;;26.05;10.95;;;;;;;5.22;47.07;99360.34;4473980;32;20501;-78
2022/01/14 01:58:58;;;;;;;24.23;10.57;;;;;;;5.25;46.82;99361.19;4473909;32;20081;-78
2022/01/14 02:01:25;;;;;;;24.10;10.80;;;;;;;5.52;46.13;99359.44;4488179;32;20107;-78
2022/01/14 02:03:54;;;;;;;30.15;11.52;;;;;;;5.49;46.09;99359.47;4473578;32;20127;-78
2022/01/14 02:06:22;;;;;;;25.30;11.70;;;;;;;4.84;47.30;99352.66;4473980;32;20119;-78
2022/01/14 02:08:50;;;;;;;26.02;11.02;;;;;;;5.09;47.05;99355.22;4488033;32;20104;-78
2022/01/14 02:11:17;;;;;;;25.95;10.75;;;;;;;4.86;47.89;99340.72;4487186;32;20524;-78
2022/01/14 02:13:45;;;;;;;28.87;10.88;;;;;;;4.71;48.02;99338.16;4488040;32;20083;-78
2022/01/14 02:16:34;;;;;;;26.87;10.60;;;;;;;4.93;47.48;99328.81;4473956;32;20494;-78
2022/01/14 02:19:25;;;;;;;29.02;10.90;;;;;;;5.34;47.00;99336.47;4487763;32;20111;-78
2022/01/14 02:22:12;;;;;;;28.67;11.50;;;;;;;5.66;46.30;99323.59;4487894;32;20465;-78
2022/01/14 02:27:09;;;;;;;24.58;11.18;;;;;;;5.43;46.99;99325.38;4487698;32;20136;-78
2022/01/14 02:29:36;;;;;;;25.55;10.40;;;;;;;4.71;48.40;99316.84;4487691;32;20093;-78
2022/01/14 02:32:04;;;;;;;27.08;10.88;;;;;;;5.31;47.15;99328.75;4487682;32;20100;-78
2022/01/14 02:34:31;;;;;;;25.10;10.38;;;;;;;5.24;47.45;99311.72;4473641;32;20148;-78
2022/01/14 02:36:58;;;;;;;28.90;11.43;;;;;;;5.43;46.85;99321.09;4487877;32;20124;-78
2022/01/14 02:39:25;;;;;;;22.30;9.73;;;;;;;5.21;47.08;99316.88;4473286;32;20151;-78
2022/01/14 02:41:52;;;;;;;27.45;11.23;;;;;;;5.25;47.07;99308.31;4487868;32;20118;-78
2022/01/14 02:44:26;;;;;;;25.00;10.60;;;;;;;5.67;46.24;99312.50;4487822;32;20442;-78
2022/01/14 02:46:57;;;;;;;24.98;11.27;;;;;;;5.13;47.58;99301.50;4487593;32;20104;-78
2022/01/14 02:49:28;;;;;;;24.98;11.63;;;;;;;4.67;48.63;99298.09;4473806;32;20677;-78
2022/01/14 02:51:56;;;;;;;29.12;12.88;;;;;;;3.84;51.22;99293.66;4487835;32;20136;-78
2022/01/14 02:54:31;;;;;;;25.52;12.32;;;;;;;3.53;53.08;99293.50;4460339;32;20143;-78
2022/01/14 02:57:02;;;;;;;27.25;10.65;;;;;;;4.08;50.70;99296.28;4487897;32;20095;-78
2022/01/14 02:59:31;;;;;;;27.52;10.90;;;;;;;4.04;51.32;99299.66;4473269;32;20139;-78
2022/01/14 03:02:01;;;;;;;25.98;11.05;;;;;;;4.02;51.33;99297.09;4473784;32;20491;-78
2022/01/14 03:04:28;;;;;;;23.25;11.65;;;;;;;4.16;50.96;99286.09;4487650;32;20084;-78
2022/01/14 03:06:55;;;;;;;28.50;11.20;;;;;;;4.64;49.68;99281.03;4487429;32;20100;-77
2022/01/14 03:09:22;;;;;;;29.02;11.27;;;;;;;4.98;48.94;99287.88;4487484;32;20093;-78
2022/01/14 03:11:53;;;;;;;25.85;10.30;;;;;;;5.25;47.72;99277.63;4473759;32;20172;-78
2022/01/14 03:14:24;;;;;;;27.52;11.80;;;;;;;4.94;48.74;99285.31;4473171;32;20163;-78
2022/01/14 03:16:54;;;;;;;26.58;11.12;;;;;;;4.17;50.55;99280.97;4488125;32;20088;-78
2022/01/14 03:19:25;;;;;;;26.08;10.85;;;;;;;4.29;50.85;99275.03;4487883;32;20163;-78
2022/01/14 03:22:17;;;;;;;26.85;10.85;;;;;;;4.57;50.39;99279.34;4473717;32;20507;-77
2022/01/14 03:27:11;;;;;;;13.95;5.57;;;;;;;4.59;51.26;99269.13;4472937;32;20121;-78
2022/01/14 03:29:38;;;;;;;;;;;;;;;4.39;54.37;99270.81;4487609;32;20498;-78
2022/01/14 03:32:06;;;;;;;13.62;4.57;;;;;;;5.35;52.69;99278.44;4487845;32;19984;-78
2022/01/14 03:34:34;;;;;;;11.50;3.70;;;;;;;5.55;51.69;99278.41;4472994;32;20472;-78
2022/01/14 03:37:01;;;;;;;13.13;3.92;;;;;;;6.20;49.78;99259.34;4487399;32;20148;-78
2022/01/14 03:39:28;;;;;;;10.18;3.83;;;;;;;6.25;49.05;99261.03;4487232;32;20454;-78
2022/01/14 03:41:55;;;;;;;10.20;3.62;;;;;;;5.84;49.95;99260.34;4487015;32;20103;-78
2022/01/14 03:44:21;;;;;;;;;;;;;;;6.21;49.21;99259.34;4487596;32;20084;-78
2022/01/14 03:46:48;;;;;;;10.57;4.03;;;;;;;6.88;47.18;99255.44;4487477;32;20020;-78
2022/01/14 03:49:15;;;;;;;9.95;3.70;;;;;;;7.03;46.76;99252.75;4486894;32;20409;-78
2022/01/14 03:51:43;;;;;;;10.77;3.90;;;;;;;7.11;46.89;99250.94;4487416;32;20571;-78
2022/01/14 03:54:10;;;;;;;9.48;3.47;;;;;;;7.83;45.23;99250.16;4487193;32;20102;-78
2022/01/14 03:56:37;;;;;;;13.32;3.95;;;;;;;8.53;43.20;99251.78;4486941;32;20449;-78
2022/01/14 03:59:04;;;;;;;12.20;3.62;;;;;;;8.31;43.47;99238.34;4487107;32;20104;-78
2022/01/14 04:01:31;;;;;;;10.32;3.80;;;;;;;8.72;42.66;99247.19;4487138;32;20479;-78
2022/01/14 04:03:58;;;;;;;10.07;3.47;;;;;;;8.13;44.31;99243.75;4486786;32;20510;-78
2022/01/14 04:06:25;;;;;;;16.55;5.78;;;;;;;7.64;45.72;99249.50;4487166;32;20169;-78
2022/01/14 04:08:53;;;;;;;15.52;6.00;;;;;;;8.08;43.65;99243.84;4486968;32;20108;-78
2022/01/14 04:11:20;;;;;;;17.05;6.37;;;;;;;8.28;42.78;99232.38;4486861;32;20163;-78
2022/01/14 04:13:53;;;;;;;15.65;6.70;;;;;;;7.97;43.44;99237.97;4487162;32;20155;-78
2022/01/14 04:16:22;;;;;;;14.13;6.25;;;;;;;8.04;43.33;99228.44;4487155;32;20099;-78
2022/01/14 04:18:50;;;;;;;15.15;6.03;;;;;;;7.80;43.84;99225.34;4487019;32;20157;-78
2022/01/14 04:21:18;;;;;;;15.40;6.15;;;;;;;8.30;42.68;99228.94;4487023;32;20108;-78
2022/01/14 04:23:45;;;;;;;17.35;6.50;;;;;;;7.67;44.32;99228.94;4486697;32;20104;-78
2022/01/14 04:26:13;;;;;;;14.68;5.15;;;;;;;7.22;45.69;99228.56;4486700;32;20160;-78
2022/01/14 04:28:40;;;;;;;11.57;4.37;;;;;;;7.77;45.07;99219.41;4486762;32;20144;-78
2022/01/14 04:31:07;;;;;;;;;;;;;;;7.53;45.92;99223.09;4487049;32;20106;-78
2022/01/14 04:33:35;;;;;;;10.00;3.20;;;;;;;7.65;45.75;99215.25;4487124;32;20063;-78
2022/01/14 04:36:03;;;;;;;8.43;3.08;;;;;;;7.31;46.60;99212.22;4492088;32;20147;-78
2022/01/14 04:38:31;;;;;;;10.55;3.17;;;;;;;7.94;45.70;99206.31;4477578;32;20175;-77
2022/01/14 04:40:58;;;;;;;8.68;3.30;;;;;;;7.27;47.40;99196.88;4491982;32;20131;-78
2022/01/14 04:43:25;;;;;;;7.43;2.72;;;;;;;7.14;46.90;99199.59;4491930;32;20155;-78
2022/01/14 04:48:30;;;;;;;8.90;2.97;;;;;;;6.81;48.85;99189.66;4491917;32;20154;-78
2022/01/14 04:50:58;;;;;;;10.05;3.55;;;;;;;6.70;49.55;99194.91;4491965;32;20092;-78
2022/01/14 04:53:25;;;;;;;8.57;3.00;;;;;;;6.71;50.13;99186.34;4491412;32;20449;-78
2022/01/14 04:55:54;;;;;;;7.87;2.87;;;;;;;6.76;50.14;99184.56;4491832;32;20140;-78
2022/01/14 04:58:25;;;;;;;7.95;2.67;;;;;;;7.01;49.23;99179.19;4492362;32;20116;-78
2022/01/14 05:00:53;;;;;;;8.25;2.78;;;;;;;7.02;49.91;99176.63;4492430;32;20098;-78
2022/01/14 05:03:20;;;;;;;8.88;2.92;;;;;;;6.82;50.46;99173.41;4491591;32;20413;-78
2022/01/14 05:05:51;;;;;;;8.75;2.50;;;;;;;6.62;51.38;99169.31;4491381;32;20629;-78
2022/01/14 05:08:22;;;;;;;8.18;2.40;;;;;;;6.94;51.14;99160.47;4491613;32;20356;-78
2022/01/14 05:13:20;;;;;;;7.65;2.42;;;;;;;6.97;52.46;99171.53;4491081;32;20163;-78
2022/01/14 05:15:47;;;;;;;6.87;2.80;;;;;;;7.16;51.96;99174.75;4477425;32;20102;-78
2022/01/14 05:18:14;;;;;;;6.93;2.53;;;;;;;7.06;52.72;99172.31;4491346;32;20111;-78
2022/01/14 05:20:42;;;;;;;8.98;2.70;;;;;;;7.31;51.68;99172.88;4485435;32;176821;-80
2022/01/14 05:23:09;;;;;;;7.93;2.72;;;;;;;7.38;51.73;99165.09;4491406;32;20106;-78
2022/01/14 05:25:36;;;;;;;8.55;2.92;;;;;;;7.86;50.65;99161.88;4491311;31;20157;-79
2022/01/14 05:28:03;;;;;;;7.53;2.85;;;;;;;8.68;48.24;99168.34;4491102;32;20115;-79
2022/01/14 05:30:30;;;;;;;7.90;2.75;;;;;;;9.57;45.47;99165.78;4496538;32;20115;-78
2022/01/14 05:32:57;;;;;;;8.80;2.75;;;;;;;9.21;46.07;99163.94;4502535;32;20091;-78
2022/01/14 05:35:26;;;;;;;8.15;2.92;;;;;;;8.25;48.36;99166.44;4502516;32;20112;-78
2022/01/14 05:37:53;;;;;;;8.05;2.87;;;;;;;8.73;47.24;99163.97;4502201;32;20074;-78
2022/01/14 05:40:21;;;;;;;9.27;3.42;;;;;;;9.04;46.36;99158.25;4501612;32;20104;-78
2022/01/14 05:42:48;;;;;;;9.13;3.00;;;;;;;8.78;46.94;99162.16;4501186;32;20147;-78
2022/01/14 05:45:16;;;;;;;7.87;2.95;;;;;;;9.51;45.29;99155.59;4500995;32;20108;-78
2022/01/14 05:47:44;;;;;;;7.35;2.80;;;;;;;9.79;44.72;99150.72;4498211;32;20100;-78
2022/01/14 05:50:16;;;;;;;8.70;2.80;;;;;;;10.32;43.80;99148.66;4495948;32;20117;-78
2022/01/14 05:52:43;;;;;;;8.90;3.33;;;;;;;9.84;45.09;99137.72;4475744;32;20113;-78
2022/01/14 05:55:12;;;;;;;9.40;2.70;;;;;;;9.76;45.65;99144.75;4489231;32;20176;-78
2022/01/14 05:57:39;;;;;;;8.02;3.12;;;;;;;9.09;47.52;99135.84;4489604;32;20100;-78
2022/01/14 06:00:10;;;;;;;8.48;2.90;;;;;;;9.14;47.06;99128.88;4489137;32;20151;-78
2022/01/14 06:02:37;;;;;;;6.68;2.30;;;;;;;8.50;49.82;99137.78;4489046;32;20103;-78
2022/01/14 06:05:05;;;;;;;8.00;2.70;;;;;;;9.32;47.99;99136.25;4489155;32;20080;-78
2022/01/14 06:07:32;;;;;;;7.72;2.78;;;;;;;9.31;48.25;99134.56;4489290;32;20095;-78
2022/01/14 06:09:59;;;;;;;6.72;2.50;;;;;;;9.35;47.74;99132.75;4488781;32;20092;-78
2022/01/14 06:12:26;;;;;;;6.95;2.53;;;;;;;8.46;49.81;99129.28;4489175;32;20072;-78
2022/01/14 06:14:53;;;;;;;7.03;2.65;;;;;;;9.81;46.73;99132.63;4489077;32;20133;-78
2022/01/14 06:17:21;;;;;;;9.13;2.87;;;;;;;9.86;46.54;99131.63;4488490;32;20691;-78
2022/01/14 06:19:48;;;;;;;8.38;2.87;;;;;;;9.70;46.58;99132.87;4488772;32;20091;-78
2022/01/14 06:22:20;;;;;;;9.73;3.12;;;;;;;9.43;47.69;99126.56;4488761;32;20080;-78
2022/01/14 06:24:48;;;;;;;8.65;2.92;;;;;;;10.12;46.20;99125.03;4488459;32;20081;-78
2022/01/14 06:27:15;;;;;;;8.10;2.70;;;;;;;10.34;45.67;99123.66;4488434;32;20079;-78
2022/01/14 06:29:42;;;;;;;6.25;2.40;;;;;;;9.64;47.03;99125.25;4488097;32;20435;-78
2022/01/14 06:32:09;;;;;;;7.55;2.72;;;;;;;9.25;49.43;99117.50;4474646;32;20498;-78
2022/01/14 06:34:36;;;;;;;7.32;2.50;;;;;;;9.16;50.19;99122.00;4488451;32;20136;-78
2022/01/14 06:37:03;;;;;;;6.95;2.28;;;;;;;9.18;51.19;99127.97;4488056;32;20096;-78
2022/01/14 06:39:31;;;;;;;6.00;2.25;;;;;;;9.16;52.62;99129.72;4488187;32;20112;-78
2022/01/14 06:41:59;;;;;;;6.47;2.42;;;;;;;9.76;50.47;99126.72;4488167;32;20095;-78
2022/01/14 06:44:26;;;;;;;7.47;2.30;;;;;;;9.73;50.57;99137.09;4488208;32;20092;-77
2022/01/14 06:46:53;;;;;;;5.40;1.75;;;;;;;9.09;52.02;99117.84;4489521;32;20716;-78
2022/01/14 06:49:22;;;;;;;6.22;2.15;;;;;;;9.23;52.34;99123.56;4492381;32;20088;-78
2022/01/14 06:51:49;;;;;;;5.57;2.17;;;;;;;8.82;53.67;99137.22;4500510;32;20139;-77
2022/01/14 06:54:16;;;;;;;4.22;1.80;;;;;;;9.23;52.32;99136.44;4499916;32;20104;-78
2022/01/14 06:56:42;;;;;;;5.82;1.80;;;;;;;9.13;52.54;99150.34;4491616;32;20131;-78
2022/01/14 06:59:12;;;;;;;5.53;1.90;;;;;;;9.31;51.75;99144.84;4492128;32;20230;-78
2022/01/14 07:01:39;;;;;;;3.85;1.50;;;;;;;9.65;51.39;99149.28;4491410;32;20451;-78
2022/01/14 07:04:06;;;;;;;5.87;1.90;;;;;;;9.80;50.63;99149.84;4492568;32;20053;-78
2022/01/14 07:06:34;;;;;;;5.90;1.83;;;;;;;10.14;49.42;99149.91;4495728;32;20061;-77
2022/01/14 07:09:01;;;;;;;7.85;2.10;;;;;;;10.13;49.38;99153.38;4483570;32;20088;-77
2022/01/14 07:11:34;;;;;;;8.50;2.60;;;;;;;10.57;48.54;99156.63;4496192;32;20129;-77
2022/01/14 07:14:02;;;;;;;5.45;1.80;;;;;;;10.82;47.56;99150.84;4492850;32;20076;-77
2022/01/14 07:16:30;;;;;;;4.32;1.70;;;;;;;10.85;47.64;99149.03;4492402;32;20188;-77
2022/01/14 07:18:57;;;;;;;5.40;1.75;;;;;;;11.35;46.05;99156.28;4495860;32;20112;-76
2022/01/14 07:21:24;;;;;;;5.15;1.90;;;;;;;12.62;42.59;99156.69;4500474;32;20053;-78
2022/01/14 07:23:51;;;;;;;4.90;1.65;;;;;;;13.01;41.97;99156.22;4499834;32;20451;-78
2022/01/14 07:26:19;;;;;;;8.43;2.15;;;;;;;12.74;42.17;99140.72;4498930;32;20116;-78
2022/01/14 07:28:46;;;;;;;10.27;3.00;;;;;;;13.37;40.78;99145.47;4496712;32;20110;-79
2022/01/14 07:31:13;;;;;;;9.90;2.90;;;;;;;13.55;40.03;99143.06;4498382;32;20072;-78
2022/01/14 07:33:40;;;;;;;10.18;2.80;;;;;;;13.42;40.42;99153.94;4493563;32;20100;-79
2022/01/14 07:36:07;;;;;;;5.45;2.08;;;;;;;14.38;38.39;99148.47;4493976;32;20132;-79
2022/01/14 07:38:34;;;;;;;9.23;3.08;;;;;;;14.29;38.14;99150.59;4493415;32;20155;-78
2022/01/14 07:41:01;;;;;;;8.52;2.70;;;;;;;15.51;35.80;99155.75;4493726;32;20100;-83
2022/01/14 07:43:29;;;;;;;6.57;1.90;;;;;;;16.65;33.28;99171.19;4488089;32;20148;-81
2022/01/14 07:45:56;;;;;;;6.40;2.05;;;;;;;15.74;34.75;99155.63;4487646;32;20096;-76
2022/01/14 07:48:23;;;;;;;4.35;1.65;;;;;;;16.75;33.30;99169.84;4488509;32;20104;-79
2022/01/14 07:50:50;;;;;;;6.60;1.98;;;;;;;17.81;31.14;99165.19;4489587;32;20175;-79
2022/01/14 07:53:17;;;;;;;11.05;3.10;;;;;;;17.47;31.42;99155.69;4473793;32;20116;-84
2022/01/14 07:55:44;;;;;;;5.45;2.05;;;;;;;16.88;32.37;99158.78;4487626;32;20156;-81
2022/01/14 07:58:12;;;;;;;5.15;1.60;;;;;;;17.88;30.29;99152.66;4488763;32;20140;-78
2022/01/14 08:00:40;;;;;;;7.40;2.10;;;;;;;17.72;30.44;99160.47;4473491;32;20096;-78
2022/01/14 08:03:07;;;;;;;5.25;2.03;;;;;;;17.05;31.43;99149.19;4491141;32;20084;-79
2022/01/14 08:05:34;;;;;;;4.70;2.03;;;;;;;16.83;32.23;99156.44;4489145;32;20143;-78
2022/01/14 08:08:07;;;;;;;4.85;1.95;;;;;;;17.46;31.00;99154.00;4488353;32;20114;-79
2022/01/14 08:10:35;;;;;;;3.35;1.50;;;;;;;16.76;31.77;99158.50;4493386;32;20060;-78
2022/01/14 08:13:03;;;;;;;5.65;1.90;;;;;;;16.23;33.10;99158.50;4493068;32;20105;-78
2022/01/14 08:15:30;;;;;;;5.62;2.00;;;;;;;15.61;33.92;99157.06;4491849;32;20148;-77
2022/01/14 08:18:00;;;;;;;4.28;1.83;;;;;;;15.50;34.22;99151.47;4490368;32;20994;-76
2022/01/14 08:20:27;;;;;;;5.45;1.83;;;;;;;15.03;34.83;99152.69;4476840;32;20084;-78
2022/01/14 08:22:54;;;;;;;5.28;1.95;;;;;;;15.18;34.55;99148.56;4491855;32;20088;-76
2022/01/14 08:25:21;;;;;;;7.78;2.20;;;;;;;14.82;35.25;99151.00;4489340;32;20396;-76
2022/01/14 08:27:49;;;;;;;6.00;2.25;;;;;;;14.26;35.76;99158.50;4478137;32;20104;-76
2022/01/14 08:30:16;;;;;;;5.62;2.30;;;;;;;15.01;34.50;99158.84;4492614;32;20359;-77
2022/01/14 08:32:43;;;;;;;7.15;2.30;;;;;;;15.07;34.73;99149.94;4489696;32;20106;-77
2022/01/14 08:35:10;;;;;;;7.82;2.67;;;;;;;15.56;33.83;99148.59;4488441;32;20108;-77
2022/01/14 08:37:38;;;;;;;9.68;2.80;;;;;;;15.75;33.25;99151.25;4487266;32;20080;-78
2022/01/14 08:40:09;;;;;;;7.43;2.87;;;;;;;15.44;33.78;99134.41;4486655;32;20123;-79
2022/01/14 08:42:37;;;;;;;6.18;2.55;;;;;;;15.57;33.44;99134.69;4486565;32;20410;-79
2022/01/14 08:45:05;;;;;;;6.90;2.37;;;;;;;15.44;34.10;99149.16;4472080;32;20155;-79
2022/01/14 08:47:32;;;;;;;5.85;2.17;;;;;;;15.25;34.07;99136.12;4486550;32;20088;-78
2022/01/14 08:50:00;;;;;;;7.65;2.60;;;;;;;15.39;34.13;99133.75;4486161;32;20126;-81
2022/01/14 08:52:27;;;;;;;7.32;2.28;;;;;;;15.29;34.20;99135.91;4486612;32;20092;-79
2022/01/14 08:54:54;;;;;;;9.05;2.80;;;;;;;15.64;33.82;99132.69;4486676;32;20138;-79
2022/01/14 08:57:23;;;;;;;6.87;2.50;;;;;;;15.36;34.31;99120.06;4486132;32;20092;-78
2022/01/14 08:59:50;;;;;;;10.05;3.40;;;;;;;15.59;34.14;99112.03;4472061;32;20408;-78
2022/01/14 09:02:18;;;;;;;7.43;2.80;;;;;;;14.74;35.50;99111.50;4486356;32;20160;-77
2022/01/14 09:04:45;;;;;;;7.05;2.60;;;;;;;13.36;37.92;99097.12;4485985;32;20479;-78
2022/01/14 09:07:12;;;;;;;8.65;2.50;;;;;;;13.22;38.69;99105.41;4486320;32;20147;-77
2022/01/14 09:09:39;;;;;;;5.95;1.85;;;;;;;13.38;38.17;99095.31;4485981;32;20558;-78
2022/01/14 09:12:08;;;;;;;6.72;2.08;;;;;;;13.11;38.86;99092.81;4485772;32;20060;-77
2022/01/14 09:14:35;;;;;;;6.25;2.30;;;;;;;13.46;38.38;99082.91;4486051;32;20131;-77
2022/01/14 09:17:03;;;;;;;5.35;2.05;;;;;;;12.98;39.07;99082.06;4486151;32;20104;-77
2022/01/14 09:19:30;;;;;;;6.47;2.25;;;;;;;13.40;38.70;99084.00;4485706;32;20198;-77
2022/01/14 09:21:57;;;;;;;4.85;1.77;;;;;;;14.32;36.80;99093.34;4488190;32;20080;-76
2022/01/14 09:24:42;;;;;;;6.65;2.10;;;;;;;13.71;37.69;99080.22;4488328;32;20088;-76
2022/01/14 09:27:11;;;;;;;7.28;2.05;;;;;;;12.67;39.76;99076.28;4470862;32;20104;-76
2022/01/14 09:29:39;;;;;;;6.80;2.03;;;;;;;12.10;40.70;99060.06;4471134;32;20151;-76
2022/01/14 09:32:07;;;;;;;7.47;2.47;;;;;;;12.81;39.93;99083.56;4471228;32;20089;-81
2022/01/14 09:34:34;;;;;;;6.50;2.00;;;;;;;13.89;37.55;99074.31;4472432;32;20148;-77
2022/01/14 09:37:02;;;;;;;6.12;2.00;;;;;;;13.74;37.73;99069.75;4471348;32;20176;-77
2022/01/14 09:39:37;;;;;;;6.50;2.10;;;;;;;14.20;36.99;99071.31;4470774;32;20092;-77
2022/01/14 09:42:25;;;;;;;7.60;2.45;;;;;;;14.16;37.07;99065.44;4464079;32;20328;-77
2022/01/14 09:44:53;;;;;;;5.82;2.00;;;;;;;14.42;36.61;99060.88;4472028;32;20491;-77
2022/01/14 09:47:21;;;;;;;6.20;1.98;;;;;;;15.38;35.11;99061.84;4470839;32;20097;-77
2022/01/14 09:49:48;;;;;;;6.93;2.25;;;;;;;15.21;35.05;99051.41;4471030;32;20119;-77
2022/01/14 09:52:16;;;;;;;5.97;1.90;;;;;;;16.26;33.28;99055.94;4472349;32;20377;-76
2022/01/14 09:54:47;;;;;;;5.50;1.85;;;;;;;16.68;32.43;99043.38;4471919;32;20185;-77
2022/01/14 09:57:18;;;;;;;6.30;1.98;;;;;;;16.96;32.03;99040.16;4472338;32;20485;-76
2022/01/14 09:59:45;;;;;;;6.55;1.95;;;;;;;15.87;33.33;99037.00;4472121;32;20163;-77
2022/01/14 10:02:37;;;;;;;5.22;2.00;;;;;;;15.52;33.81;99017.84;4471876;32;20141;-77
2022/01/14 10:05:08;;;;;;;6.45;2.17;;;;;;;14.63;35.11;99023.66;4472259;32;20101;-77
2022/01/14 10:07:35;;;;;;;4.85;1.85;;;;;;;14.73;35.06;99006.75;4471080;32;20116;-78
2022/01/14 10:10:23;;;;;;;6.93;2.10;;;;;;;15.29;34.55;99012.88;4472019;32;20618;-77
2022/01/14 10:12:50;;;;;;;4.87;1.90;;;;;;;14.44;35.27;99004.53;4472381;32;20092;-77
2022/01/14 10:15:17;;;;;;;5.47;2.12;;;;;;;13.68;36.30;98981.78;4471880;32;20100;-77
2022/01/14 10:17:45;;;;;;;5.82;2.00;;;;;;;13.94;36.11;98985.94;4472408;32;20148;-77
2022/01/14 10:20:17;;;;;;;6.45;2.05;;;;;;;14.22;36.05;98970.03;4472415;32;20080;-77
2022/01/14 10:22:46;;;;;;;6.55;2.03;;;;;;;14.01;36.35;98972.63;4472192;32;20112;-77
2022/01/14 10:25:20;;;;;;;6.30;2.08;;;;;;;13.39;37.44;98959.63;4472862;32;20093;-77
2022/01/14 10:27:49;;;;;;;7.35;2.10;;;;;;;13.21;38.29;98959.47;4487452;32;20092;-76
2022/01/14 10:30:31;;;;;;;6.82;1.80;;;;;;;13.87;36.64;98951.63;4487515;32;20088;-76
2022/01/14 10:33:07;;;;;;;4.50;1.60;;;;;;;13.90;36.75;98943.69;4487127;32;20077;-76
2022/01/14 10:35:39;;;;;;;6.22;1.70;;;;;;;14.10;36.15;98907.38;4487460;32;20097;-77
2022/01/14 10:38:08;;;;;;;3.62;1.40;;;;;;;13.11;37.67;98921.81;4487607;32;20147;-76
2022/01/14 10:40:41;;;;;;;3.97;1.55;;;;;;;13.26;37.43;98925.56;4473544;32;20577;-77
2022/01/14 10:43:10;;;;;;;5.15;1.90;;;;;;;13.23;37.67;98915.34;4486971;32;20128;-76
2022/01/14 10:45:54;;;;;;;3.92;1.17;;;;;;;12.87;38.10;98907.22;4487549;32;20597;-75
2022/01/14 10:48:34;;;;;;;6.05;1.50;;;;;;;13.23;37.75;98895.44;4487499;32;20114;-76
2022/01/14 10:51:06;;;;;;;4.75;1.70;;;;;;;12.94;38.96;98895.72;4487153;32;20140;-76
2022/01/14 10:53:36;;;;;;;4.12;1.52;;;;;;;14.10;37.06;98904.78;4487378;32;20147;-76
2022/01/14 10:56:06;;;;;;;4.28;1.62;;;;;;;13.49;37.35;98890.94;4487545;32;20103;-75
2022/01/14 10:58:34;;;;;;;3.75;1.50;;;;;;;12.83;38.88;98895.28;4487443;32;20155;-76
2022/01/14 11:01:23;;;;;;;4.00;1.30;;;;;;;12.84;38.20;98895.22;4487575;32;20100;-76
2022/01/14 11:04:02;;;;;;;5.37;1.80;;;;;;;12.42;39.36;98876.97;4472963;32;20099;-76
2022/01/14 11:06:34;;;;;;;4.50;1.65;;;;;;;12.75;38.79;98874.84;4487492;32;20097;-76
2022/01/14 11:09:05;;;;;;;5.22;1.70;;;;;;;12.59;38.85;98869.44;4487360;32;20112;-76
2022/01/14 11:11:37;;;;;;;5.32;1.58;;;;;;;12.90;38.60;98881.19;4487246;32;20449;-76
2022/01/14 11:14:06;;;;;;;3.45;1.50;;;;;;;13.73;37.10;98892.53;4487386;32;20084;-75
2022/01/14 11:16:34;;;;;;;7.12;2.05;;;;;;;14.04;36.86;98892.06;4487272;32;20089;-75
2022/01/14 11:19:03;;;;;;;6.50;2.00;;;;;;;13.20;37.82;98893.00;4472646;32;20100;-76
2022/01/14 11:24:23;;;;;;;6.32;2.30;;;;;;;14.61;35.63;98900.81;4475270;32;20096;-76
2022/01/14 11:26:51;;;;;;;6.53;2.62;;;;;;;14.41;36.16;98896.47;4487074;32;20499;-75
2022/01/14 11:29:21;;;;;;;7.40;2.90;;;;;;;14.30;35.95;98869.31;4473148;32;20108;-75
2022/01/14 11:31:59;;;;;;;6.87;2.58;;;;;;;12.74;38.40;98870.56;4470835;32;20088;-76
2022/01/14 11:34:37;;;;;;;8.32;3.03;;;;;;;13.11;38.18;98885.53;4486544;32;20601;-75
2022/01/14 11:37:10;;;;;;;7.28;2.92;;;;;;;12.99;38.30;98866.16;4473218;32;20512;-76
2022/01/14 11:39:38;;;;;;;10.30;3.33;;;;;;;12.35;39.08;98872.94;4472280;32;20459;-76
2022/01/14 11:42:17;;;;;;;7.15;2.55;;;;;;;12.32;39.78;98865.25;4487192;32;20098;-76
2022/01/14 11:44:56;;;;;;;9.68;3.78;;;;;;;12.67;38.88;98870.00;4485299;32;20171;-76
2022/01/14 11:47:37;;;;;;;6.97;2.30;;;;;;;12.93;38.59;98868.97;4486573;32;20104;-76
2022/01/14 11:50:07;;;;;;;8.23;3.05;;;;;;;12.19;38.46;98844.19;4486996;32;20118;-76
2022/01/14 11:52:42;;;;;;;7.72;3.12;;;;;;;13.26;37.57;98861.62;4486948;32;20156;-77
2022/01/14 11:55:21;;;;;;;10.73;3.50;;;;;;;12.37;38.99;98842.66;4487260;32;20155;-77
2022/01/14 11:58:09;;;;;;;8.65;3.20;;;;;;;12.65;38.59;98851.09;4487290;32;20115;-77
2022/01/14 12:00:39;;;;;;;9.68;4.15;;;;;;;13.21;38.25;98847.19;4486707;32;20092;-77
2022/01/14 12:03:15;;;;;;;8.95;3.15;;;;;;;13.16;37.74;98842.13;4486805;32;20072;-79
2022/01/14 12:05:55;;;;;;;10.05;3.75;;;;;;;13.05;37.79;98841.72;4487421;32;20116;-78
2022/01/14 12:08:26;;;;;;;12.02;3.55;;;;;;;12.73;37.64;98830.88;4472628;32;20135;-80
2022/01/14 12:10:57;;;;;;;10.23;3.95;;;;;;;13.09;37.40;98842.47;4487191;32;20100;-77
2022/01/14 12:19:00;;;;;;;8.82;3.20;;;;;;;13.20;36.95;98841.16;4486678;32;20175;-76